Time;durP1;ratioP1;P1;durP2;ratioP2;P2;SDS_P1;SDS_P2;PMS_P1;PMS_P2;Temp;Humidity;BMP_temperature;BMP_pressure;BME280_temperature;BME280_humidity;BME280_pressure;Samples;Min_cycle;Max_cycle;Signal;HPM_P1;HPM_P2
2022/03/19 00:01:28;;;;;;;45.33;21.90;;;-1.00;99.90;;;;;;5036725;28;20059;-90
2022/03/19 00:03:55;;;;;;;43.90;22.85;;;-1.00;99.90;;;;;;5036822;28;20053;-91
2022/03/19 00:06:22;;;;;;;48.08;22.52;;;-1.20;99.90;;;;;;4999115;28;1080542;-91
2022/03/19 00:08:49;;;;;;;43.88;21.55;;;-1.20;99.90;;;;;;5038602;28;20059;-91
2022/03/19 00:11:16;;;;;;;51.90;22.25;;;-1.20;99.90;;;;;;5050429;28;20163;-91
2022/03/19 00:13:43;;;;;;;41.60;22.90;;;-1.20;99.90;;;;;;5038583;28;20053;-91
2022/03/19 00:16:10;;;;;;;47.92;23.30;;;-1.20;99.90;;;;;;5037603;28;20045;-91
2022/03/19 00:18:37;;;;;;;51.20;23.60;;;-1.10;99.90;;;;;;5037743;28;20057;-91
2022/03/19 00:21:06;;;;;;;47.10;23.60;;;-1.00;99.90;;;;;;5037504;28;20140;-91
2022/03/19 00:23:32;;;;;;;44.92;22.92;;;-1.00;99.90;;;;;;5037471;28;20053;-92
2022/03/19 00:25:59;;;;;;;49.17;22.90;;;-1.00;99.90;;;;;;5037346;28;20124;-91
2022/03/19 00:28:26;;;;;;;52.72;22.90;;;-1.00;99.90;;;;;;5037441;28;20140;-92
2022/03/19 00:30:56;;;;;;;44.10;21.38;;;-1.00;99.90;;;;;;5037732;28;20045;-91
2022/03/19 00:33:23;;;;;;;48.65;21.65;;;-1.00;99.90;;;;;;5037025;28;20053;-91
2022/03/19 00:35:50;;;;;;;51.67;21.92;;;-1.10;99.90;;;;;;5037539;28;20488;-91
2022/03/19 00:38:17;;;;;;;42.67;20.48;;;-1.10;99.90;;;;;;5037063;28;20064;-92
2022/03/19 00:40:45;;;;;;;46.67;20.52;;;-1.10;99.90;;;;;;5036939;28;20053;-92
2022/03/19 00:43:12;;;;;;;39.58;19.55;;;-1.20;99.90;;;;;;5036836;28;20053;-92
2022/03/19 00:45:39;;;;;;;42.25;18.58;;;-1.20;99.90;;;;;;5037115;28;20136;-92
2022/03/19 00:48:06;;;;;;;37.17;18.30;;;-1.20;99.90;;;;;;5037053;28;20119;-92
2022/03/19 00:50:33;;;;;;;38.05;19.60;;;-1.30;99.90;;;;;;5036832;28;20552;-92
2022/03/19 00:52:59;;;;;;;37.25;17.88;;;-1.40;99.90;;;;;;5036511;28;20517;-92
2022/03/19 00:55:26;;;;;;;43.05;18.98;;;-1.40;99.90;;;;;;5036990;28;20564;-92
2022/03/19 00:57:53;;;;;;;40.00;18.77;;;-1.50;99.90;;;;;;5036801;28;20048;-92
2022/03/19 01:00:24;;;;;;;39.60;19.08;;;-1.60;99.90;;;;;;5036715;28;20404;-92
2022/03/19 01:02:52;;;;;;;38.97;18.92;;;-1.60;99.90;;;;;;5036090;28;20044;-93
2022/03/19 01:05:20;;;;;;;41.35;18.25;;;-1.60;99.90;;;;;;5039787;28;20048;-92
2022/03/19 01:07:52;;;;;;;36.03;17.10;;;-1.70;99.90;;;;;;5036103;28;20108;-93
2022/03/19 01:10:29;;;;;;;44.30;17.63;;;-1.80;99.90;;;;;;5036541;28;20055;-93
2022/03/19 01:12:57;;;;;;;47.45;18.73;;;-1.70;99.90;;;;;;5036639;28;20560;-93
2022/03/19 01:15:24;;;;;;;35.50;16.33;;;-1.80;99.90;;;;;;5036939;28;20552;-93
2022/03/19 01:17:51;;;;;;;39.58;18.35;;;-1.70;99.90;;;;;;5036761;28;20439;-92
2022/03/19 01:20:18;;;;;;;35.83;17.52;;;-1.70;99.90;;;;;;5036636;28;20124;-93
2022/03/19 01:22:46;;;;;;;40.65;17.65;;;-1.70;99.90;;;;;;5036514;28;20411;-93
2022/03/19 01:25:15;;;;;;;42.35;17.88;;;-1.80;99.90;;;;;;5042685;28;20041;-93
2022/03/19 01:27:44;;;;;;;39.10;17.73;;;-1.80;99.90;;;;;;5038386;28;20564;-93
2022/03/19 01:30:14;;;;;;;46.80;19.95;;;-2.00;99.90;;;;;;5036165;28;20432;-93
2022/03/19 01:32:41;;;;;;;46.60;20.23;;;-1.90;99.90;;;;;;5035878;28;20120;-94
2022/03/19 01:35:09;;;;;;;43.17;20.10;;;-1.80;99.90;;;;;;5035796;28;20132;-94
2022/03/19 01:37:38;;;;;;;38.83;19.10;;;-1.80;99.90;;;;;;5036506;28;20075;-94
2022/03/19 01:40:06;;;;;;;45.35;17.63;;;-1.80;99.90;;;;;;5036465;28;20051;-93
2022/03/19 01:42:39;;;;;;;35.08;17.55;;;-1.90;99.90;;;;;;5036114;28;20115;-94
2022/03/19 01:45:11;;;;;;;42.20;17.95;;;-1.90;99.90;;;;;;5035831;28;20045;-94
2022/03/19 01:47:37;;;;;;;49.30;18.80;;;-1.90;99.90;;;;;;5036261;28;20087;-93
2022/03/19 01:50:05;;;;;;;40.50;18.60;;;-1.90;99.90;;;;;;5036777;28;20105;-94
2022/03/19 01:52:32;;;;;;;44.53;19.85;;;-2.00;99.90;;;;;;5036016;28;20493;-93
2022/03/19 01:55:00;;;;;;;35.58;18.27;;;-2.00;99.90;;;;;;5035969;28;20059;-93
2022/03/19 01:57:37;;;;;;;45.70;19.63;;;-2.00;99.90;;;;;;5035903;28;20049;-94
2022/03/19 02:00:06;;;;;;;53.13;20.15;;;-2.00;99.90;;;;;;5035774;28;20069;-94
2022/03/19 02:02:33;;;;;;;42.90;19.40;;;-2.00;99.90;;;;;;5035678;28;20057;-94
2022/03/19 02:05:03;;;;;;;46.88;19.40;;;-2.10;99.90;;;;;;5036711;28;20144;-94
2022/03/19 02:07:31;;;;;;;41.50;17.67;;;-2.10;99.90;;;;;;5039677;28;20584;-93
2022/03/19 02:09:59;;;;;;;40.50;17.77;;;-2.10;99.90;;;;;;5039884;28;20056;-94
2022/03/19 02:12:27;;;;;;;51.90;19.83;;;-2.20;99.90;;;;;;5039917;28;20081;-94
2022/03/19 02:14:53;;;;;;;48.25;20.08;;;-2.20;99.90;;;;;;5039869;28;20089;-94
2022/03/19 02:17:20;;;;;;;43.83;19.25;;;-2.10;99.90;;;;;;5039702;28;20136;-94
2022/03/19 02:19:49;;;;;;;47.20;20.13;;;-2.10;99.90;;;;;;5040152;28;20511;-94
2022/03/19 02:22:17;;;;;;;44.88;18.50;;;-2.20;99.90;;;;;;5039613;28;20408;-95
2022/03/19 02:27:30;;;;;;;42.58;18.30;;;-2.30;99.90;;;;;;5057019;28;20456;-94
2022/03/19 02:29:57;;;;;;;44.63;19.73;;;-2.30;99.90;;;;;;5039439;28;20053;-94
2022/03/19 02:32:24;;;;;;;36.45;17.40;;;-2.30;99.90;;;;;;5039644;28;20055;-94
2022/03/19 02:34:52;;;;;;;38.45;17.88;;;-2.30;99.90;;;;;;5039420;28;20053;-94
2022/03/19 02:37:19;;;;;;;40.65;16.83;;;-2.30;99.90;;;;;;5039911;28;20065;-95
2022/03/19 02:39:46;;;;;;;35.53;17.20;;;-2.30;99.90;;;;;;5048207;28;20092;-94
2022/03/19 02:42:18;;;;;;;35.47;17.08;;;-2.30;99.90;;;;;;5042951;28;20128;-94
2022/03/19 02:44:46;;;;;;;37.58;16.98;;;-2.30;99.90;;;;;;5039490;28;20131;-94
2022/03/19 02:47:13;;;;;;;37.38;16.52;;;-2.30;99.90;;;;;;5039384;28;20408;-94
2022/03/19 02:49:40;;;;;;;36.95;16.63;;;-2.40;99.90;;;;;;5038979;28;20138;-94
2022/03/19 02:52:06;;;;;;;31.20;15.15;;;-2.50;99.90;;;;;;5038825;28;20041;-94
2022/03/19 02:54:33;;;;;;;33.50;15.43;;;-2.40;99.90;;;;;;5039252;28;20127;-95
2022/03/19 02:57:00;;;;;;;38.67;17.60;;;-2.50;99.90;;;;;;5039180;28;20056;-95
2022/03/19 02:59:31;;;;;;;38.65;16.63;;;-2.50;99.90;;;;;;5039112;28;20053;-94
2022/03/19 03:02:03;;;;;;;42.75;16.85;;;-2.50;99.90;;;;;;5039023;28;20044;-95
2022/03/19 03:04:31;;;;;;;44.70;18.08;;;-2.40;99.90;;;;;;5039329;28;20052;-95
2022/03/19 03:07:03;;;;;;;42.15;17.55;;;-2.30;99.90;;;;;;5038687;28;20049;-95
2022/03/19 03:09:32;;;;;;;39.20;18.50;;;-2.20;99.90;;;;;;5039399;28;20059;-95
2022/03/19 03:12:01;;;;;;;54.30;20.00;;;-2.00;99.90;;;;;;5039314;28;20485;-95
2022/03/19 03:14:28;;;;;;;57.08;21.00;;;-2.00;99.90;;;;;;5038855;28;20124;-95
2022/03/19 03:16:58;;;;;;;48.00;20.52;;;-1.80;99.90;;;;;;5038357;28;20069;-95
2022/03/19 03:19:25;;;;;;;48.25;20.60;;;-1.70;99.90;;;;;;5038839;28;20128;-95
2022/03/19 03:21:52;;;;;;;62.83;22.05;;;-1.70;99.90;;;;;;5038717;28;20049;-95
2022/03/19 03:24:18;;;;;;;49.75;21.75;;;-1.70;99.90;;;;;;5038468;28;20048;-95
2022/03/19 03:26:45;;;;;;;61.22;20.95;;;-1.60;99.90;;;;;;5038646;28;20041;-94
2022/03/19 03:29:14;;;;;;;52.03;20.45;;;-1.40;99.90;;;;;;5038366;28;20131;-95
2022/03/19 03:31:41;;;;;;;76.47;23.50;;;-1.30;99.90;;;;;;5038347;28;20083;-94
2022/03/19 03:34:08;;;;;;;51.35;21.75;;;-1.20;99.90;;;;;;5038420;28;20053;-93
2022/03/19 03:36:35;;;;;;;56.42;21.73;;;-1.10;99.90;;;;;;5038229;28;20067;-95
2022/03/19 03:39:02;;;;;;;56.05;21.92;;;-1.00;99.90;;;;;;5038135;28;20055;-95
2022/03/19 03:41:29;;;;;;;49.13;21.60;;;-0.90;99.90;;;;;;5038054;28;20136;-95
2022/03/19 03:43:56;;;;;;;52.70;21.70;;;-0.80;99.90;;;;;;5037808;28;20129;-94
2022/03/19 03:46:22;;;;;;;47.88;21.45;;;-0.70;99.90;;;;;;5037843;28;20059;-95
2022/03/19 03:48:49;;;;;;;48.25;21.58;;;-0.80;99.90;;;;;;5038065;28;20443;-94
2022/03/19 03:51:16;;;;;;;48.42;19.73;;;-0.70;99.90;;;;;;5038215;28;20484;-94
2022/03/19 03:53:45;;;;;;;46.08;19.60;;;-0.60;99.90;;;;;;5047976;28;20057;-94
2022/03/19 03:56:12;;;;;;;44.58;18.52;;;-0.60;99.90;;;;;;5043138;28;20051;-94
2022/03/19 03:58:40;;;;;;;35.50;17.90;;;-0.60;99.90;;;;;;5038192;28;20049;-94
2022/03/19 04:01:08;;;;;;;45.28;18.70;;;-0.60;99.90;;;;;;5037688;28;20132;-94
2022/03/19 04:03:35;;;;;;;41.22;19.73;;;-0.60;99.90;;;;;;5037740;28;20064;-94
2022/03/19 04:06:03;;;;;;;42.80;18.75;;;-0.50;99.90;;;;;;5037373;28;20057;-94
2022/03/19 04:08:30;;;;;;;37.25;18.27;;;-0.50;99.90;;;;;;5037724;28;20059;-94
2022/03/19 04:10:56;;;;;;;34.20;16.48;;;-0.50;99.90;;;;;;5037382;28;20047;-94
2022/03/19 04:13:23;;;;;;;35.95;17.15;;;-0.50;99.90;;;;;;5037536;28;20053;-94
2022/03/19 04:15:50;;;;;;;37.83;16.33;;;-0.50;99.90;;;;;;5037434;28;20073;-95
2022/03/19 04:18:17;;;;;;;43.92;17.17;;;-0.40;99.90;;;;;;5037457;28;20144;-94
2022/03/19 04:20:43;;;;;;;44.17;17.35;;;-0.40;99.90;;;;;;5037500;28;20056;-94
2022/03/19 04:23:10;;;;;;;36.60;17.17;;;-0.40;99.90;;;;;;5036977;28;20049;-94
2022/03/19 04:25:37;;;;;;;37.83;17.45;;;-0.40;99.90;;;;;;5037213;28;20049;-94
2022/03/19 04:28:04;;;;;;;38.95;16.90;;;-0.40;99.90;;;;;;5036641;28;20094;-94
2022/03/19 04:30:31;;;;;;;31.52;14.73;;;-0.40;99.90;;;;;;5037174;28;20132;-94
2022/03/19 04:33:00;;;;;;;31.85;16.00;;;-0.40;99.90;;;;;;5037354;28;20160;-94
2022/03/19 04:38:17;;;;;;;36.95;16.90;;;-0.40;99.90;;;;;;5054443;28;20055;-94
2022/03/19 04:40:46;;;;;;;38.10;16.23;;;-0.40;99.90;;;;;;5037072;28;20057;-94
2022/03/19 04:43:13;;;;;;;39.85;16.52;;;-0.50;99.90;;;;;;5036863;28;20193;-94
2022/03/19 04:45:41;;;;;;;44.15;18.17;;;-0.40;99.90;;;;;;5037077;28;20049;-94
2022/03/19 04:48:09;;;;;;;40.40;17.88;;;-0.50;99.90;;;;;;5036557;28;20049;-94
2022/03/19 04:50:42;;;;;;;46.95;17.55;;;-0.50;99.90;;;;;;5036521;28;20051;-94
2022/03/19 04:53:10;;;;;;;40.65;18.35;;;-0.40;99.90;;;;;;5036713;28;20049;-94
2022/03/19 04:55:38;;;;;;;48.60;19.23;;;-0.40;99.90;;;;;;5036816;28;20059;-94
2022/03/19 04:58:06;;;;;;;40.70;17.50;;;-0.50;99.90;;;;;;5037029;28;20064;-94
2022/03/19 05:00:33;;;;;;;46.42;18.73;;;-0.40;99.90;;;;;;5036950;28;20055;-94
2022/03/19 05:03:04;;;;;;;43.38;18.63;;;-0.30;99.90;;;;;;5037436;28;20079;-94
2022/03/19 05:05:31;;;;;;;38.25;17.50;;;-0.40;99.90;;;;;;5038339;28;20053;-94
2022/03/19 05:07:58;;;;;;;45.35;18.60;;;-0.40;99.90;;;;;;5046040;28;20072;-94
2022/03/19 05:13:11;;;;;;;46.50;18.13;;;-0.50;99.90;;;;;;5054651;28;20059;-94
2022/03/19 05:15:38;;;;;;;38.75;17.60;;;-0.40;99.90;;;;;;5036597;28;20064;-94
2022/03/19 05:18:05;;;;;;;36.95;18.02;;;-0.40;99.90;;;;;;5036569;28;20052;-94
2022/03/19 05:20:34;;;;;;;32.45;17.45;;;-0.30;99.90;;;;;;5036684;28;20102;-94
2022/03/19 05:23:01;;;;;;;39.85;17.80;;;-0.30;99.90;;;;;;5036252;28;20140;-93
2022/03/19 05:25:28;;;;;;;35.63;16.73;;;-0.30;99.90;;;;;;5036781;28;20052;-94
2022/03/19 05:27:55;;;;;;;38.33;17.63;;;-0.30;99.90;;;;;;5036354;28;20052;-94
2022/03/19 05:30:22;;;;;;;43.78;18.48;;;-0.30;99.90;;;;;;5036279;28;20132;-94
2022/03/19 05:32:49;;;;;;;42.72;18.30;;;-0.20;99.90;;;;;;5036142;28;20404;-94
2022/03/19 05:35:18;;;;;;;39.35;18.67;;;-0.20;99.90;;;;;;5035878;28;20116;-94
2022/03/19 05:37:47;;;;;;;39.42;17.90;;;-0.20;99.90;;;;;;5036137;28;20048;-93
2022/03/19 05:40:14;;;;;;;38.88;19.27;;;0.00;99.90;;;;;;5035779;28;20068;-93
2022/03/19 05:42:41;;;;;;;41.20;19.20;;;0.00;99.90;;;;;;5035890;28;20055;-94
2022/03/19 05:45:13;;;;;;;37.22;18.48;;;0.10;99.90;;;;;;5035552;28;20053;-93
2022/03/19 05:47:40;;;;;;;35.13;18.55;;;0.10;99.90;;;;;;5038709;28;20052;-93
2022/03/19 05:50:21;;;;;;;36.60;17.83;;;0.10;99.90;;;;;;5023037;28;20131;-93
2022/03/19 05:52:48;;;;;;;42.97;19.40;;;0.00;99.90;;;;;;5035851;28;20056;-94
2022/03/19 05:55:15;;;;;;;45.08;21.25;;;0.00;99.90;;;;;;5035759;28;20424;-93
2022/03/19 05:57:41;;;;;;;41.25;19.10;;;0.00;99.90;;;;;;5035819;28;20604;-93
2022/03/19 06:00:11;;;;;;;38.00;18.60;;;0.00;99.90;;;;;;5035711;28;20053;-94
2022/03/19 06:02:42;;;;;;;37.22;18.40;;;0.00;99.90;;;;;;5035863;28;20052;-93
2022/03/19 06:05:10;;;;;;;51.53;21.35;;;-0.10;99.90;;;;;;5035448;28;20131;-93
2022/03/19 06:07:36;;;;;;;45.30;21.55;;;0.00;99.90;;;;;;5035049;28;20492;-93
2022/03/19 06:10:05;;;;;;;56.45;23.40;;;0.20;99.90;;;;;;5035719;28;20405;-93
2022/03/19 06:12:33;;;;;;;62.17;24.98;;;0.40;99.90;;;;;;5035622;28;20136;-93
2022/03/19 06:15:00;;;;;;;54.53;23.13;;;0.40;99.90;;;;;;5035994;28;20049;-93
2022/03/19 06:17:27;;;;;;;53.00;21.85;;;0.30;99.90;;;;;;5036057;28;20046;-93
2022/03/19 06:19:54;;;;;;;51.20;22.90;;;0.40;99.90;;;;;;5036290;28;20049;-93
2022/03/19 06:22:22;;;;;;;47.17;20.48;;;0.50;99.90;;;;;;5039227;28;20136;-93
2022/03/19 06:24:49;;;;;;;63.97;22.85;;;0.70;99.90;;;;;;5043578;28;20132;-93
2022/03/19 06:27:15;;;;;;;42.22;20.88;;;0.70;99.90;;;;;;5036044;28;20048;-93
2022/03/19 06:29:42;;;;;;;61.95;24.48;;;0.80;99.90;;;;;;5035824;28;20059;-93
2022/03/19 06:32:09;;;;;;;48.65;22.33;;;0.90;99.90;;;;;;5035829;28;20049;-92
2022/03/19 06:34:35;;;;;;;39.38;20.77;;;0.90;99.90;;;;;;5025748;28;20047;-93
2022/03/19 06:37:20;;;;;;;41.35;20.83;;;1.00;99.90;;;;;;5030542;28;20059;-92
2022/03/19 06:39:49;;;;;;;43.65;20.50;;;1.10;99.90;;;;;;5035995;28;20053;-92
2022/03/19 06:42:16;;;;;;;51.58;25.17;;;1.10;99.90;;;;;;5035647;28;20044;-92
2022/03/19 06:44:43;;;;;;;50.50;24.35;;;1.10;99.90;;;;;;5035541;28;20052;-93
2022/03/19 06:47:10;;;;;;;56.47;24.13;;;1.20;99.90;;;;;;5035486;28;20157;-93
2022/03/19 06:49:37;;;;;;;54.50;24.25;;;1.20;99.90;;;;;;5035814;28;20049;-92
2022/03/19 06:52:04;;;;;;;66.93;31.50;;;1.30;99.90;;;;;;5038225;28;20308;-92
2022/03/19 06:54:31;;;;;;;82.78;34.45;;;1.30;99.90;;;;;;5039676;28;20141;-92
2022/03/19 06:56:58;;;;;;;76.95;35.38;;;1.40;99.90;;;;;;5038836;28;20049;-92
2022/03/19 06:59:25;;;;;;;74.93;31.88;;;1.50;99.90;;;;;;5037553;28;20136;-93
2022/03/19 07:01:51;;;;;;;74.05;35.28;;;1.70;99.90;;;;;;5037585;28;20131;-92
2022/03/19 07:04:19;;;;;;;56.88;27.08;;;1.70;99.90;;;;;;5037346;28;20052;-92
2022/03/19 07:06:45;;;;;;;50.25;24.10;;;1.90;99.90;;;;;;5037610;28;20075;-92
2022/03/19 07:09:28;;;;;;;50.42;23.17;;;1.80;99.90;;;;;;5039471;28;20064;-92
2022/03/19 07:11:55;;;;;;;54.90;28.52;;;1.90;99.90;;;;;;5038924;28;20049;-90
2022/03/19 07:14:22;;;;;;;57.50;26.85;;;1.70;99.90;;;;;;5038882;28;20047;-91
2022/03/19 07:16:49;;;;;;;41.20;20.48;;;1.80;99.90;;;;;;5039226;28;20057;-90
2022/03/19 07:19:16;;;;;;;41.58;21.83;;;1.80;99.90;;;;;;5039033;28;20045;-90
2022/03/19 07:21:43;;;;;;;45.78;26.48;;;1.90;99.90;;;;;;5038073;28;20052;-90
2022/03/19 07:24:10;;;;;;;35.97;20.30;;;1.90;99.90;;;;;;5038046;28;20045;-89
2022/03/19 07:26:37;;;;;;;37.13;19.30;;;2.30;99.90;;;;;;5039369;28;20045;-90
2022/03/19 07:29:04;;;;;;;38.40;19.27;;;2.50;99.90;;;;;;5037517;28;20578;-89
2022/03/19 07:31:31;;;;;;;36.15;20.05;;;2.70;99.90;;;;;;5037834;28;20126;-89
2022/03/19 07:33:59;;;;;;;30.05;16.85;;;3.10;99.90;;;;;;5040548;28;20060;-88
2022/03/19 07:36:26;;;;;;;29.50;16.20;;;3.30;99.90;;;;;;5041868;28;20048;-89
2022/03/19 07:38:53;;;;;;;28.05;14.93;;;3.80;99.90;;;;;;5040946;28;20128;-87
2022/03/19 07:44:06;;;;;;;26.00;15.07;;;3.90;99.90;;;;;;5055169;28;20052;-88
2022/03/19 07:46:34;;;;;;;25.10;13.75;;;3.90;99.90;;;;;;5038141;28;20056;-88
2022/03/19 07:49:03;;;;;;;23.73;13.65;;;3.90;99.90;;;;;;5037978;28;20485;-88
2022/03/19 07:51:29;;;;;;;19.40;11.13;;;4.20;99.90;;;;;;5037612;28;20057;-88
2022/03/19 07:53:56;;;;;;;24.15;11.85;;;4.40;99.90;;;;;;5037921;28;20052;-88
2022/03/19 07:56:24;;;;;;;20.30;10.52;;;4.30;99.90;;;;;;5031159;28;20480;-87
2022/03/19 07:58:51;;;;;;;18.25;8.15;;;4.50;99.90;;;;;;5023122;28;20099;-87
2022/03/19 08:01:19;;;;;;;20.63;9.43;;;4.40;99.90;;;;;;5016586;28;20049;-87
2022/03/19 08:03:47;;;;;;;18.55;9.77;;;4.60;99.90;;;;;;5016411;28;20045;-86
2022/03/19 08:06:14;;;;;;;18.67;8.68;;;4.70;99.90;;;;;;5017144;28;20049;-87
2022/03/19 08:08:41;;;;;;;24.48;8.73;;;4.80;99.90;;;;;;5016948;28;20045;-87
2022/03/19 08:11:08;;;;;;;21.60;9.52;;;5.00;99.90;;;;;;5015895;28;20052;-87
2022/03/19 08:13:35;;;;;;;21.67;10.07;;;5.10;99.90;;;;;;5015901;28;20265;-87
2022/03/19 08:16:02;;;;;;;20.52;9.32;;;5.20;99.90;;;;;;5015852;28;20056;-87
2022/03/19 08:18:29;;;;;;;20.13;8.95;;;5.40;99.90;;;;;;5015972;28;20048;-87
2022/03/19 08:20:58;;;;;;;24.52;8.65;;;5.60;99.90;;;;;;5015418;28;20053;-87
2022/03/19 08:23:25;;;;;;;28.75;8.60;;;5.50;99.90;;;;;;5016673;28;20055;-86
2022/03/19 08:25:52;;;;;;;22.30;8.05;;;5.70;99.90;;;;;;5017444;28;20053;-87
2022/03/19 08:28:19;;;;;;;19.42;7.85;;;5.90;99.90;;;;;;5017582;28;20108;-87
2022/03/19 08:30:46;;;;;;;18.75;7.63;;;6.10;99.90;;;;;;5017351;28;20120;-87
2022/03/19 08:33:12;;;;;;;26.38;8.77;;;6.00;99.90;;;;;;5017581;28;20050;-86
2022/03/19 08:35:39;;;;;;;20.55;9.38;;;5.70;99.90;;;;;;5017275;28;20512;-87
2022/03/19 08:40:51;;;;;;;20.15;8.27;;;7.00;99.90;;;;;;5034440;28;20072;-86
2022/03/19 08:43:18;;;;;;;23.73;7.57;;;7.90;99.90;;;;;;5017419;28;20049;-86
2022/03/19 08:45:45;;;;;;;19.80;7.40;;;9.10;99.90;;;;;;5017149;28;20087;-86
2022/03/19 08:48:13;;;;;;;16.60;6.53;;;8.80;99.90;;;;;;5034852;28;20561;-87
2022/03/19 08:50:40;;;;;;;19.48;6.85;;;8.40;99.90;;;;;;5025436;28;20053;-87
2022/03/19 08:53:07;;;;;;;21.80;7.38;;;8.40;99.90;;;;;;5024180;28;20125;-86
2022/03/19 08:55:34;;;;;;;16.60;6.97;;;7.90;99.90;;;;;;5017208;28;20069;-86
2022/03/19 08:58:00;;;;;;;22.27;7.82;;;7.40;99.90;;;;;;5016816;28;20412;-86
2022/03/19 09:00:27;;;;;;;18.33;8.10;;;7.10;99.90;;;;;;5017388;28;20048;-86
2022/03/19 09:02:55;;;;;;;17.05;7.22;;;7.40;99.90;;;;;;5016808;28;20088;-86
2022/03/19 09:05:30;;;;;;;20.90;8.10;;;7.60;99.90;;;;;;5017090;28;20075;-86
2022/03/19 09:07:57;;;;;;;19.83;9.13;;;7.90;99.90;;;;;;5017190;28;20049;-88
2022/03/19 09:10:24;;;;;;;22.17;9.80;;;7.90;99.90;;;;;;5016943;28;20405;-88
2022/03/19 09:12:51;;;;;;;32.28;9.88;;;8.30;99.90;;;;;;5016809;28;20128;-86
2022/03/19 09:15:17;;;;;;;21.08;9.38;;;8.20;99.90;;;;;;5016477;28;20393;-86
2022/03/19 09:17:45;;;;;;;15.32;7.68;;;8.90;99.90;;;;;;5016892;28;20045;-86
2022/03/19 09:20:12;;;;;;;16.20;7.60;;;9.30;99.90;;;;;;5033609;28;20060;-85
2022/03/19 09:22:39;;;;;;;15.02;6.95;;;9.50;99.90;;;;;;5016201;28;20049;-87
2022/03/19 09:25:06;;;;;;;17.85;6.38;;;9.90;99.90;;;;;;5015868;28;20077;-86
2022/03/19 09:27:34;;;;;;;16.02;5.80;;;11.00;99.90;;;;;;5016271;28;20087;-87
2022/03/19 09:30:01;;;;;;;12.00;5.22;;;11.70;99.40;;;;;;5033491;28;20053;-86
2022/03/19 09:32:27;;;;;;;13.32;5.03;;;11.90;99.00;;;;;;5016221;28;20557;-86
2022/03/19 09:34:54;;;;;;;12.93;5.00;;;13.00;93.60;;;;;;5016054;28;20489;-86
2022/03/19 09:37:21;;;;;;;16.17;5.43;;;12.80;91.80;;;;;;5033563;28;20071;-86
2022/03/19 09:39:49;;;;;;;19.35;5.93;;;12.80;91.50;;;;;;5016070;28;20045;-87
2022/03/19 09:42:16;;;;;;;10.05;5.70;;;12.60;91.20;;;;;;5015972;28;20051;-87
2022/03/19 09:44:43;;;;;;;13.05;5.50;;;12.90;90.90;;;;;;5016005;28;20057;-87
2022/03/19 09:47:12;;;;;;;15.93;5.78;;;12.80;89.10;;;;;;5015975;28;20133;-86
2022/03/19 09:49:39;;;;;;;13.88;4.43;;;12.40;89.90;;;;;;5015917;28;20050;-86
2022/03/19 09:52:06;;;;;;;12.75;4.75;;;13.10;90.20;;;;;;5015956;28;20383;-87
2022/03/19 09:54:33;;;;;;;10.50;4.68;;;13.30;88.50;;;;;;5016187;28;20053;-87
2022/03/19 09:57:00;;;;;;;15.80;4.82;;;13.00;88.70;;;;;;5016118;28;20050;-87
2022/03/19 09:59:27;;;;;;;11.25;4.63;;;12.60;90.20;;;;;;5016250;28;20054;-86
2022/03/19 10:01:55;;;;;;;12.70;4.78;;;12.70;89.90;;;;;;5016034;28;20073;-86
2022/03/19 10:04:22;;;;;;;13.95;4.07;;;12.40;87.30;;;;;;5018136;28;20532;-87
2022/03/19 10:09:45;;;;;;;5.82;3.00;;;13.20;82.60;;;;;;5033403;28;20490;-86
2022/03/19 10:12:14;;;;;;;9.23;3.42;;;13.30;80.40;;;;;;5015347;28;20077;-87
2022/03/19 10:14:45;;;;;;;9.75;3.15;;;13.60;78.50;;;;;;5015957;28;20059;-86
2022/03/19 10:17:25;;;;;;;8.52;2.35;;;14.20;78.10;;;;;;5016578;28;20052;-89
2022/03/19 10:19:52;;;;;;;6.32;2.60;;;14.50;74.20;;;;;;5016221;28;20417;-88
2022/03/19 10:22:28;;;;;;;16.92;3.22;;;14.40;73.60;;;;;;5015898;28;20478;-88
2022/03/19 10:25:00;;;;;;;9.77;3.10;;;14.20;73.50;;;;;;5015731;28;20103;-88
2022/03/19 10:27:34;;;;;;;17.15;3.30;;;14.20;73.30;;;;;;5035973;28;20083;-88
2022/03/19 10:30:02;;;;;;;12.18;2.90;;;13.90;72.50;;;;;;5019718;28;20132;-87
2022/03/19 10:32:28;;;;;;;12.10;2.95;;;13.20;74.50;;;;;;5019032;28;20057;-87
2022/03/19 10:34:55;;;;;;;4.25;2.10;;;13.50;72.80;;;;;;5036935;28;20049;-86
2022/03/19 10:37:39;;;;;;;9.45;2.58;;;14.00;72.20;;;;;;5036695;28;20124;-87
2022/03/19 10:40:09;;;;;;;8.90;2.20;;;14.30;70.10;;;;;;5019422;28;20409;-87
2022/03/19 10:42:38;;;;;;;10.68;2.38;;;14.00;67.20;;;;;;5019262;28;20560;-87
2022/03/19 10:45:10;;;;;;;9.27;2.45;;;13.90;69.70;;;;;;5028782;28;20141;-88
2022/03/19 10:47:46;;;;;;;5.55;2.20;;;13.70;69.60;;;;;;5036745;28;20051;-89
2022/03/19 10:50:23;;;;;;;20.20;2.22;;;14.30;68.40;;;;;;5012038;28;20128;-87
2022/03/19 10:52:52;;;;;;;9.68;2.20;;;13.50;69.20;;;;;;5019292;28;20052;-86
2022/03/19 10:55:21;;;;;;;8.63;2.80;;;13.50;70.10;;;;;;5019456;28;20417;-87
2022/03/19 10:57:47;;;;;;;4.57;2.10;;;13.50;69.60;;;;;;5036605;28;20450;-88
2022/03/19 11:00:20;;;;;;;7.70;2.70;;;14.20;69.70;;;;;;5036513;28;20052;-90
2022/03/19 11:02:49;;;;;;;8.07;2.20;;;14.40;68.10;;;;;;5019160;28;20120;-87
2022/03/19 11:05:19;;;;;;;12.70;2.03;;;13.70;68.40;;;;;;5036710;28;20472;-88
2022/03/19 11:07:46;;;;;;;10.50;2.33;;;13.70;69.20;;;;;;5018822;28;20136;-88
2022/03/19 11:10:14;;;;;;;11.40;2.10;;;12.30;70.70;;;;;;5019229;28;20368;-86
2022/03/19 11:12:50;;;;;;;7.50;2.63;;;10.90;74.30;;;;;;5019024;28;20387;-89
2022/03/19 11:15:19;;;;;;;13.20;4.85;;;10.30;78.20;;;;;;5018926;28;20073;-87
2022/03/19 11:17:50;;;;;;;16.58;3.08;;;9.80;79.70;;;;;;5019049;28;20416;-87
2022/03/19 11:20:17;;;;;;;27.90;11.73;;;9.30;79.50;;;;;;5019776;28;20125;-86
2022/03/19 11:22:47;;;;;;;19.08;6.25;;;8.90;82.20;;;;;;5019885;28;20073;-87
2022/03/19 11:25:26;;;;;;;20.60;7.93;;;8.70;84.10;;;;;;5018783;28;20054;-88
2022/03/19 11:28:12;;;;;;;15.65;6.40;;;8.70;85.20;;;;;;5018555;28;20128;-87
2022/03/19 11:30:42;;;;;;;20.40;8.43;;;9.00;85.80;;;;;;5018336;28;20049;-87
2022/03/19 11:33:17;;;;;;;16.30;4.72;;;9.00;86.70;;;;;;5018509;28;20057;-87
2022/03/19 11:35:54;;;;;;;8.57;2.90;;;8.80;86.60;;;;;;5018392;28;20049;-87
2022/03/19 11:38:23;;;;;;;10.63;3.10;;;8.60;86.90;;;;;;5018421;28;20096;-86
2022/03/19 11:40:55;;;;;;;10.10;3.28;;;8.40;88.50;;;;;;5035539;28;20132;-87
2022/03/19 11:43:26;;;;;;;11.93;4.38;;;8.90;89.30;;;;;;5018338;28;20050;-88
2022/03/19 11:46:02;;;;;;;16.00;7.35;;;10.80;82.90;;;;;;5035672;28;20140;-87
2022/03/19 11:48:38;;;;;;;12.48;6.82;;;11.70;77.60;;;;;;5018200;28;20071;-88
2022/03/19 11:51:37;;;;;;;14.77;6.28;;;12.10;76.80;;;;;;5017918;28;20045;-88
2022/03/19 11:54:16;;;;;;;6.95;2.25;;;13.20;75.30;;;;;;5018219;28;20061;-87
2022/03/19 11:56:47;;;;;;;7.55;2.97;;;13.40;71.00;;;;;;5018109;28;20077;-88
2022/03/19 11:59:23;;;;;;;29.30;17.63;;;13.40;69.90;;;;;;5018152;28;20060;-87
2022/03/19 12:01:56;;;;;;;13.80;7.72;;;14.20;69.90;;;;;;5017472;28;20516;-86
2022/03/19 12:04:24;;;;;;;20.15;10.52;;;14.60;67.50;;;;;;5018058;28;20045;-87
2022/03/19 12:06:53;;;;;;;8.98;4.53;;;15.10;65.00;;;;;;5017504;28;20057;-87
2022/03/19 12:09:53;;;;;;;28.33;11.95;;;14.70;65.30;;;;;;5017582;28;20049;-88
2022/03/19 12:12:24;;;;;;;22.25;9.15;;;15.10;68.00;;;;;;5035147;28;20057;-88
2022/03/19 12:14:51;;;;;;;14.98;3.53;;;13.60;66.90;;;;;;5017783;28;20056;-87
2022/03/19 12:17:23;;;;;;;7.30;3.40;;;12.10;70.60;;;;;;5017488;28;20057;-88
2022/03/19 12:19:58;;;;;;;8.30;2.80;;;11.50;74.50;;;;;;5017729;28;20180;-89
2022/03/19 12:22:39;;;;;;;7.72;3.60;;;10.80;76.70;;;;;;5017511;28;20054;-90
2022/03/19 12:25:25;;;;;;;7.05;2.78;;;10.10;79.40;;;;;;5034937;28;20099;-88
2022/03/19 12:27:57;;;;;;;6.70;2.72;;;9.70;83.20;;;;;;5017739;28;20516;-88
2022/03/19 12:30:25;;;;;;;12.80;3.05;;;9.60;85.10;;;;;;5017752;28;20057;-88
2022/03/19 12:32:54;;;;;;;8.73;2.80;;;9.80;86.10;;;;;;5018298;28;20143;-89
2022/03/19 12:35:37;;;;;;;5.68;2.67;;;9.50;86.20;;;;;;5029421;28;20133;-88
2022/03/19 12:38:04;;;;;;;13.90;2.30;;;9.10;86.10;;;;;;5018159;28;20060;-90
2022/03/19 12:43:20;;;;;;;9.75;2.10;;;8.40;85.50;;;;;;5035888;28;20045;-88
2022/03/19 12:45:51;;;;;;;8.68;2.00;;;8.20;88.00;;;;;;5054350;28;20059;-87
2022/03/19 12:48:20;;;;;;;8.02;2.20;;;7.90;90.80;;;;;;5035109;28;20095;-87
2022/03/19 12:50:56;;;;;;;9.18;2.40;;;7.90;91.60;;;;;;5034954;28;20045;-87
2022/03/19 12:53:39;;;;;;;9.07;2.50;;;8.10;92.10;;;;;;5035964;28;20080;-88
2022/03/19 12:56:20;;;;;;;9.57;2.55;;;8.00;92.30;;;;;;5054554;28;20496;-87
2022/03/19 12:58:50;;;;;;;8.18;2.58;;;8.20;92.70;;;;;;5036606;28;20056;-87
2022/03/19 13:01:20;;;;;;;10.35;3.20;;;8.10;94.00;;;;;;5020563;28;20136;-87
2022/03/19 13:03:52;;;;;;;11.23;2.85;;;7.90;95.20;;;;;;5054214;28;20048;-87